Aérodrome :







RETROUVEZ-NOUS SUR...

 
LOGIN :

S'inscrire | Disclaimer

   EN    FR    IT 

 









Légende :    VFR   VFR Marginal   IFR   IFR Intensif   IFR Très Intensif
Visi : 
Plafond : 
>= 8 km
>= 3000ft
5 à 8 km
1000 à 3000 ft
1500m à 5 km
500 à 1000 ft
800 à 1500m
200 à 500 ft
< 800m
< 200 ft
Symboles :   Orages  Brouillard  Fortes neiges  Fortes précipitations  Vent > 20 kt






- Altitude de l'aérodrome : 1825 ft


K8B0 - Steven A. Bean Municipal

DERNIER METAR :
  • 270035Z AUTO 26003KT 7SM -SN SCT012 BKN027 OVC043 M01/M02 A2951 RMK AO2

METARs EXPIRÉS :
  • 270015Z AUTO 00000KT 10SM SCT018 BKN022 OVC030 M01/M02 A2951 RMK AO2
  • 262355Z AUTO 00000KT 10SM SCT014 BKN021 OVC026 00/M02 A2952 RMK AO2
  • 262335Z AUTO 30006KT 10SM BKN020 OVC025 M01/M02 A2952 RMK AO2
  • 262315Z AUTO 28006KT 10SM SCT014 SCT020 BKN070 M01/M02 A2952 RMK AO2
  • 262255Z AUTO 29006KT 10SM SCT014 SCT070 BKN090 M01/M02 A2951 RMK AO2
  • 262235Z AUTO 29007G15KT 10SM BKN100 00/M02 A2951 RMK AO2
  • 262215Z AUTO 30008KT 10SM SCT011 SCT020 OVC090 00/M01 A2951 RMK AO2
  • 262155Z AUTO 29005KT 7SM -SN SCT011 BKN017 OVC090 00/M01 A2951 RMK AO2

TAF N/A



MET'MAP, la Météo Aéronautique d'un coup d'oeil ! - Copyright ORBIFLY Décembre 2007 - Disclaimer

ORBIFLY MET'MAP TEAM :

Programmation & Développement : Alexandra Zaïnal
Sur une idée originale de : Baudouin d'Aumeries
Assistance à la programmation : Marc-Olivier Méhu
Soutien technique & logistique : Manuel Goepfert

Contact : metmap@orbifly.com




SOURCES & CREDITS :

   NOAA